sensor_id;sensor_type;location;lat;lon;timestamp;pressure;altitude;pressure_sealevel;temperature;humidity
28935;BME280;16044;52.726;-2.108;2022-08-30T00:01:28;101589.75;;;13.74;70.91
28935;BME280;16044;52.726;-2.108;2022-08-30T00:03:57;101593.81;;;13.70;70.81
28935;BME280;16044;52.726;-2.108;2022-08-30T00:06:26;101590.78;;;13.65;70.95
28935;BME280;16044;52.726;-2.108;2022-08-30T00:08:55;101591.78;;;13.64;70.96
28935;BME280;16044;52.726;-2.108;2022-08-30T00:11:25;101593.16;;;13.60;70.98
28935;BME280;16044;52.726;-2.108;2022-08-30T00:13:54;101590.75;;;13.57;71.09
28935;BME280;16044;52.726;-2.108;2022-08-30T00:16:24;101600.97;;;13.55;71.17
28935;BME280;16044;52.726;-2.108;2022-08-30T00:18:52;101603.88;;;13.53;71.08
28935;BME280;16044;52.726;-2.108;2022-08-30T00:21:20;101590.94;;;13.47;71.17
28935;BME280;16044;52.726;-2.108;2022-08-30T00:23:47;101598.56;;;13.43;71.36
28935;BME280;16044;52.726;-2.108;2022-08-30T00:26:15;101597.22;;;13.39;71.29
28935;BME280;16044;52.726;-2.108;2022-08-30T00:28:42;101598.41;;;13.37;71.47
28935;BME280;16044;52.726;-2.108;2022-08-30T00:31:09;101603.34;;;13.33;71.49
28935;BME280;16044;52.726;-2.108;2022-08-30T00:33:43;101605.38;;;13.31;71.48
28935;BME280;16044;52.726;-2.108;2022-08-30T00:36:10;101608.41;;;13.28;71.99
28935;BME280;16044;52.726;-2.108;2022-08-30T00:38:37;101609.75;;;13.24;72.05
28935;BME280;16044;52.726;-2.108;2022-08-30T00:41:04;101606.66;;;13.19;72.15
28935;BME280;16044;52.726;-2.108;2022-08-30T00:43:32;101607.72;;;13.18;72.29
28935;BME280;16044;52.726;-2.108;2022-08-30T00:46:03;101599.03;;;13.14;72.39
28935;BME280;16044;52.726;-2.108;2022-08-30T00:48:36;101603.94;;;13.11;72.37
28935;BME280;16044;52.726;-2.108;2022-08-30T00:51:08;101609.69;;;13.07;72.82
28935;BME280;16044;52.726;-2.108;2022-08-30T00:53:39;101606.47;;;13.04;72.85
28935;BME280;16044;52.726;-2.108;2022-08-30T00:56:10;101602.72;;;13.05;72.93
28935;BME280;16044;52.726;-2.108;2022-08-30T00:58:42;101609.53;;;13.01;73.34
28935;BME280;16044;52.726;-2.108;2022-08-30T01:01:11;101607.97;;;12.98;73.60
28935;BME280;16044;52.726;-2.108;2022-08-30T01:03:39;101602.53;;;12.98;73.90
28935;BME280;16044;52.726;-2.108;2022-08-30T01:06:07;101607.28;;;12.96;74.03
28935;BME280;16044;52.726;-2.108;2022-08-30T01:08:34;101607.28;;;12.96;73.80
28935;BME280;16044;52.726;-2.108;2022-08-30T01:11:02;101595.72;;;12.94;73.64
28935;BME280;16044;52.726;-2.108;2022-08-30T01:13:30;101603.88;;;12.94;73.56
28935;BME280;16044;52.726;-2.108;2022-08-30T01:16:00;101606.25;;;12.89;73.77
28935;BME280;16044;52.726;-2.108;2022-08-30T01:18:29;101610.00;;;12.88;73.49
28935;BME280;16044;52.726;-2.108;2022-08-30T01:23:35;101603.66;;;12.79;73.66
28935;BME280;16044;52.726;-2.108;2022-08-30T01:26:06;101609.59;;;12.75;73.67
28935;BME280;16044;52.726;-2.108;2022-08-30T01:28:33;101608.91;;;12.73;73.52
28935;BME280;16044;52.726;-2.108;2022-08-30T01:31:00;101603.09;;;12.67;73.63
28935;BME280;16044;52.726;-2.108;2022-08-30T01:33:28;101601.72;;;12.63;73.91
28935;BME280;16044;52.726;-2.108;2022-08-30T01:36:01;101603.91;;;12.60;73.86
28935;BME280;16044;52.726;-2.108;2022-08-30T01:38:39;101611.38;;;12.58;73.96
28935;BME280;16044;52.726;-2.108;2022-08-30T01:41:13;101610.16;;;12.52;74.38
28935;BME280;16044;52.726;-2.108;2022-08-30T01:43:43;101609.47;;;12.50;74.21
28935;BME280;16044;52.726;-2.108;2022-08-30T01:46:11;101605.38;;;12.46;74.38
28935;BME280;16044;52.726;-2.108;2022-08-30T01:48:40;101602.28;;;12.41;74.49
28935;BME280;16044;52.726;-2.108;2022-08-30T01:51:15;101604.63;;;12.36;74.63
28935;BME280;16044;52.726;-2.108;2022-08-30T01:53:43;101596.63;;;12.34;74.46
28935;BME280;16044;52.726;-2.108;2022-08-30T01:56:12;101599.84;;;12.29;74.56
28935;BME280;16044;52.726;-2.108;2022-08-30T01:58:40;101598.31;;;12.27;75.02
28935;BME280;16044;52.726;-2.108;2022-08-30T02:01:10;101601.19;;;12.25;74.96
28935;BME280;16044;52.726;-2.108;2022-08-30T02:03:41;101585.34;;;12.21;75.13
28935;BME280;16044;52.726;-2.108;2022-08-30T02:06:13;101586.84;;;12.15;75.51
28935;BME280;16044;52.726;-2.108;2022-08-30T02:08:42;101582.44;;;12.14;75.41
28935;BME280;16044;52.726;-2.108;2022-08-30T02:11:11;101584.47;;;12.12;75.90
28935;BME280;16044;52.726;-2.108;2022-08-30T02:13:40;101579.47;;;12.07;76.38
28935;BME280;16044;52.726;-2.108;2022-08-30T02:16:09;101582.34;;;12.06;76.68
28935;BME280;16044;52.726;-2.108;2022-08-30T02:18:39;101588.13;;;12.03;77.00
28935;BME280;16044;52.726;-2.108;2022-08-30T02:21:07;101588.97;;;12.03;77.06
28935;BME280;16044;52.726;-2.108;2022-08-30T02:23:35;101579.28;;;12.01;77.40
28935;BME280;16044;52.726;-2.108;2022-08-30T02:26:03;101584.03;;;11.99;77.57
28935;BME280;16044;52.726;-2.108;2022-08-30T02:28:30;101581.47;;;11.97;77.51
28935;BME280;16044;52.726;-2.108;2022-08-30T02:30:58;101583.50;;;11.95;77.59
28935;BME280;16044;52.726;-2.108;2022-08-30T02:33:25;101579.94;;;11.95;77.86
28935;BME280;16044;52.726;-2.108;2022-08-30T02:35:53;101594.81;;;11.90;77.87
28935;BME280;16044;52.726;-2.108;2022-08-30T02:38:19;101588.53;;;11.90;77.80
28935;BME280;16044;52.726;-2.108;2022-08-30T02:40:47;101587.69;;;11.89;77.83
28935;BME280;16044;52.726;-2.108;2022-08-30T02:43:15;101587.13;;;11.86;77.78
28935;BME280;16044;52.726;-2.108;2022-08-30T02:45:42;101589.31;;;11.82;77.84
28935;BME280;16044;52.726;-2.108;2022-08-30T02:48:10;101590.28;;;11.81;78.17
28935;BME280;16044;52.726;-2.108;2022-08-30T02:50:41;101590.63;;;11.78;78.09
28935;BME280;16044;52.726;-2.108;2022-08-30T02:53:09;101589.94;;;11.76;77.91
28935;BME280;16044;52.726;-2.108;2022-08-30T02:55:42;101589.56;;;11.71;78.23
28935;BME280;16044;52.726;-2.108;2022-08-30T02:58:09;101581.69;;;11.68;78.21
28935;BME280;16044;52.726;-2.108;2022-08-30T03:00:37;101573.56;;;11.68;78.38
28935;BME280;16044;52.726;-2.108;2022-08-30T03:03:05;101588.47;;;11.64;78.70
28935;BME280;16044;52.726;-2.108;2022-08-30T03:05:33;101577.06;;;11.60;78.53
28935;BME280;16044;52.726;-2.108;2022-08-30T03:08:05;101570.25;;;11.56;78.77
28935;BME280;16044;52.726;-2.108;2022-08-30T03:10:34;101570.72;;;11.51;78.78
28935;BME280;16044;52.726;-2.108;2022-08-30T03:13:01;101575.47;;;11.49;78.89
28935;BME280;16044;52.726;-2.108;2022-08-30T03:15:29;101578.19;;;11.49;79.22
28935;BME280;16044;52.726;-2.108;2022-08-30T03:17:56;101572.19;;;11.46;79.08
28935;BME280;16044;52.726;-2.108;2022-08-30T03:20:24;101578.78;;;11.43;79.18
28935;BME280;16044;52.726;-2.108;2022-08-30T03:22:51;101581.13;;;11.38;79.54
28935;BME280;16044;52.726;-2.108;2022-08-30T03:25:19;101574.13;;;11.36;79.11
28935;BME280;16044;52.726;-2.108;2022-08-30T03:27:47;101575.31;;;11.33;79.57
28935;BME280;16044;52.726;-2.108;2022-08-30T03:30:16;101570.88;;;11.32;79.27
28935;BME280;16044;52.726;-2.108;2022-08-30T03:32:44;101567.47;;;11.30;79.07
28935;BME280;16044;52.726;-2.108;2022-08-30T03:35:13;101569.63;;;11.26;79.25
28935;BME280;16044;52.726;-2.108;2022-08-30T03:37:40;101569.09;;;11.23;79.12
28935;BME280;16044;52.726;-2.108;2022-08-30T03:40:08;101578.53;;;11.19;79.40
28935;BME280;16044;52.726;-2.108;2022-08-30T03:42:36;101575.13;;;11.17;79.13
28935;BME280;16044;52.726;-2.108;2022-08-30T03:45:05;101566.63;;;11.11;79.30
28935;BME280;16044;52.726;-2.108;2022-08-30T03:47:33;101570.31;;;11.10;79.18
28935;BME280;16044;52.726;-2.108;2022-08-30T03:50:00;101565.38;;;11.06;79.42
28935;BME280;16044;52.726;-2.108;2022-08-30T03:52:27;101572.63;;;11.05;79.50
28935;BME280;16044;52.726;-2.108;2022-08-30T03:54:54;101572.25;;;11.00;79.69
28935;BME280;16044;52.726;-2.108;2022-08-30T03:57:21;101576.97;;;10.98;79.84
28935;BME280;16044;52.726;-2.108;2022-08-30T03:59:50;101582.38;;;10.98;79.78
28935;BME280;16044;52.726;-2.108;2022-08-30T04:02:17;101578.97;;;10.96;79.61
28935;BME280;16044;52.726;-2.108;2022-08-30T04:04:45;101585.72;;;10.92;79.62
28935;BME280;16044;52.726;-2.108;2022-08-30T04:07:12;101583.84;;;10.92;79.41
28935;BME280;16044;52.726;-2.108;2022-08-30T04:09:39;101583.47;;;10.87;79.57
28935;BME280;16044;52.726;-2.108;2022-08-30T04:12:06;101582.78;;;10.85;79.79
28935;BME280;16044;52.726;-2.108;2022-08-30T04:14:33;101588.34;;;10.84;79.61
28935;BME280;16044;52.726;-2.108;2022-08-30T04:17:00;101584.25;;;10.80;79.46
28935;BME280;16044;52.726;-2.108;2022-08-30T04:19:27;101585.56;;;10.76;79.59
28935;BME280;16044;52.726;-2.108;2022-08-30T04:21:54;101579.72;;;10.70;79.49
28935;BME280;16044;52.726;-2.108;2022-08-30T04:24:22;101588.13;;;10.67;79.74
28935;BME280;16044;52.726;-2.108;2022-08-30T04:26:50;101587.44;;;10.65;79.60
28935;BME280;16044;52.726;-2.108;2022-08-30T04:29:16;101590.63;;;10.61;79.31
28935;BME280;16044;52.726;-2.108;2022-08-30T04:31:44;101591.03;;;10.56;79.40
28935;BME280;16044;52.726;-2.108;2022-08-30T04:34:12;101583.22;;;10.53;79.62
28935;BME280;16044;52.726;-2.108;2022-08-30T04:36:39;101589.66;;;10.52;79.51
28935;BME280;16044;52.726;-2.108;2022-08-30T04:39:06;101589.94;;;10.49;79.33
28935;BME280;16044;52.726;-2.108;2022-08-30T04:41:35;101594.97;;;10.44;79.71
28935;BME280;16044;52.726;-2.108;2022-08-30T04:44:02;101606.78;;;10.43;79.77
28935;BME280;16044;52.726;-2.108;2022-08-30T04:46:29;101604.09;;;10.43;79.38
28935;BME280;16044;52.726;-2.108;2022-08-30T04:48:56;101609.09;;;10.38;79.54
28935;BME280;16044;52.726;-2.108;2022-08-30T04:51:23;101610.94;;;10.37;79.52
28935;BME280;16044;52.726;-2.108;2022-08-30T04:53:50;101615.81;;;10.33;79.71
28935;BME280;16044;52.726;-2.108;2022-08-30T04:56:19;101618.84;;;10.30;79.80
28935;BME280;16044;52.726;-2.108;2022-08-30T04:58:51;101612.81;;;10.27;79.81
28935;BME280;16044;52.726;-2.108;2022-08-30T05:01:25;101622.97;;;10.25;79.99
28935;BME280;16044;52.726;-2.108;2022-08-30T05:03:54;101624.09;;;10.22;79.71
28935;BME280;16044;52.726;-2.108;2022-08-30T05:06:23;101624.41;;;10.19;80.05
28935;BME280;16044;52.726;-2.108;2022-08-30T05:08:53;101622.81;;;10.17;79.82
28935;BME280;16044;52.726;-2.108;2022-08-30T05:11:21;101618.56;;;10.14;79.94
28935;BME280;16044;52.726;-2.108;2022-08-30T05:13:49;101615.00;;;10.13;79.84
28935;BME280;16044;52.726;-2.108;2022-08-30T05:16:16;101620.56;;;10.12;79.69
28935;BME280;16044;52.726;-2.108;2022-08-30T05:18:49;101611.03;;;10.08;79.96
28935;BME280;16044;52.726;-2.108;2022-08-30T05:21:25;101615.72;;;10.06;79.58
28935;BME280;16044;52.726;-2.108;2022-08-30T05:23:56;101616.72;;;10.05;79.98
28935;BME280;16044;52.726;-2.108;2022-08-30T05:26:29;101615.03;;;10.04;79.70
28935;BME280;16044;52.726;-2.108;2022-08-30T05:28:58;101621.44;;;10.03;79.91
28935;BME280;16044;52.726;-2.108;2022-08-30T05:31:29;101618.72;;;10.03;79.89
28935;BME280;16044;52.726;-2.108;2022-08-30T05:34:00;101619.56;;;10.03;79.97
28935;BME280;16044;52.726;-2.108;2022-08-30T05:36:29;101623.84;;;10.06;80.04
28935;BME280;16044;52.726;-2.108;2022-08-30T05:38:57;101612.00;;;10.07;79.95
28935;BME280;16044;52.726;-2.108;2022-08-30T05:41:26;101612.13;;;10.15;80.24
28935;BME280;16044;52.726;-2.108;2022-08-30T05:43:58;101612.84;;;10.17;80.38
28935;BME280;16044;52.726;-2.108;2022-08-30T05:46:27;101609.56;;;10.23;80.52
28935;BME280;16044;52.726;-2.108;2022-08-30T05:49:18;101625.09;;;10.31;80.42
28935;BME280;16044;52.726;-2.108;2022-08-30T05:51:45;101629.78;;;10.39;80.40
28935;BME280;16044;52.726;-2.108;2022-08-30T05:54:13;101625.91;;;10.51;80.54
28935;BME280;16044;52.726;-2.108;2022-08-30T05:56:43;101637.25;;;10.64;80.25
28935;BME280;16044;52.726;-2.108;2022-08-30T05:59:11;101638.75;;;10.77;80.41
28935;BME280;16044;52.726;-2.108;2022-08-30T06:01:41;101639.28;;;10.90;80.11
28935;BME280;16044;52.726;-2.108;2022-08-30T06:04:11;101637.19;;;11.02;80.10
28935;BME280;16044;52.726;-2.108;2022-08-30T06:06:41;101637.88;;;11.14;79.86
28935;BME280;16044;52.726;-2.108;2022-08-30T06:09:10;101633.91;;;11.26;79.34
28935;BME280;16044;52.726;-2.108;2022-08-30T06:11:39;101641.44;;;11.32;79.57
28935;BME280;16044;52.726;-2.108;2022-08-30T06:14:06;101634.09;;;11.42;79.39
28935;BME280;16044;52.726;-2.108;2022-08-30T06:16:36;101627.13;;;11.58;79.15
28935;BME280;16044;52.726;-2.108;2022-08-30T06:19:06;101624.47;;;11.66;78.97
28935;BME280;16044;52.726;-2.108;2022-08-30T06:21:34;101624.91;;;11.79;78.42
28935;BME280;16044;52.726;-2.108;2022-08-30T06:24:04;101626.44;;;11.92;78.04
28935;BME280;16044;52.726;-2.108;2022-08-30T06:26:39;101637.34;;;12.00;77.96
28935;BME280;16044;52.726;-2.108;2022-08-30T06:29:10;101627.25;;;12.10;77.42
28935;BME280;16044;52.726;-2.108;2022-08-30T06:31:43;101622.00;;;12.17;77.20
28935;BME280;16044;52.726;-2.108;2022-08-30T06:34:10;101622.25;;;12.23;77.04
28935;BME280;16044;52.726;-2.108;2022-08-30T06:36:37;101626.22;;;12.37;76.78
28935;BME280;16044;52.726;-2.108;2022-08-30T06:39:05;101617.94;;;12.47;76.33
28935;BME280;16044;52.726;-2.108;2022-08-30T06:41:34;101619.66;;;12.48;75.92
28935;BME280;16044;52.726;-2.108;2022-08-30T06:44:04;101619.72;;;12.56;75.44
28935;BME280;16044;52.726;-2.108;2022-08-30T06:46:34;101613.25;;;12.57;75.22
28935;BME280;16044;52.726;-2.108;2022-08-30T06:49:03;101615.31;;;12.63;74.92
28935;BME280;16044;52.726;-2.108;2022-08-30T06:51:37;101621.13;;;12.68;74.74
28935;BME280;16044;52.726;-2.108;2022-08-30T06:54:07;101617.38;;;12.70;74.81
28935;BME280;16044;52.726;-2.108;2022-08-30T06:56:37;101610.28;;;12.77;74.92
28935;BME280;16044;52.726;-2.108;2022-08-30T06:59:08;101616.44;;;12.87;74.89
28935;BME280;16044;52.726;-2.108;2022-08-30T07:01:35;101615.28;;;12.98;74.27
28935;BME280;16044;52.726;-2.108;2022-08-30T07:04:02;101619.25;;;13.12;73.83
28935;BME280;16044;52.726;-2.108;2022-08-30T07:06:31;101623.16;;;13.17;73.57
28935;BME280;16044;52.726;-2.108;2022-08-30T07:08:58;101630.03;;;13.30;73.18
28935;BME280;16044;52.726;-2.108;2022-08-30T07:13:59;101630.94;;;13.47;72.81
28935;BME280;16044;52.726;-2.108;2022-08-30T07:16:27;101631.63;;;13.57;72.80
28935;BME280;16044;52.726;-2.108;2022-08-30T07:18:55;101632.31;;;13.67;72.81
28935;BME280;16044;52.726;-2.108;2022-08-30T07:23:56;101633.00;;;13.94;71.64
28935;BME280;16044;52.726;-2.108;2022-08-30T07:26:31;101631.63;;;14.06;71.21
28935;BME280;16044;52.726;-2.108;2022-08-30T07:29:09;101634.84;;;14.26;70.97
28935;BME280;16044;52.726;-2.108;2022-08-30T07:31:36;101632.78;;;14.45;70.00
28935;BME280;16044;52.726;-2.108;2022-08-30T07:34:05;101633.59;;;14.53;69.98
28935;BME280;16044;52.726;-2.108;2022-08-30T07:36:33;101631.84;;;14.69;69.55
28935;BME280;16044;52.726;-2.108;2022-08-30T07:39:03;101636.25;;;14.86;68.84
28935;BME280;16044;52.726;-2.108;2022-08-30T07:41:33;101636.03;;;14.96;66.07
28935;BME280;16044;52.726;-2.108;2022-08-30T07:44:06;101627.28;;;15.09;64.57
28935;BME280;16044;52.726;-2.108;2022-08-30T07:46:34;101629.22;;;15.23;64.60
28935;BME280;16044;52.726;-2.108;2022-08-30T07:49:01;101634.28;;;15.34;64.27
28935;BME280;16044;52.726;-2.108;2022-08-30T07:51:30;101629.25;;;15.46;63.09
28935;BME280;16044;52.726;-2.108;2022-08-30T07:53:58;101629.78;;;15.73;62.99
28935;BME280;16044;52.726;-2.108;2022-08-30T07:56:26;101633.47;;;16.03;62.63
28935;BME280;16044;52.726;-2.108;2022-08-30T07:58:53;101622.03;;;16.37;61.53
28935;BME280;16044;52.726;-2.108;2022-08-30T08:01:21;101619.00;;;16.62;60.22
28935;BME280;16044;52.726;-2.108;2022-08-30T08:03:49;101614.94;;;16.88;59.24
28935;BME280;16044;52.726;-2.108;2022-08-30T08:06:18;101617.09;;;17.07;58.36
28935;BME280;16044;52.726;-2.108;2022-08-30T08:08:47;101628.69;;;17.24;58.09
28935;BME280;16044;52.726;-2.108;2022-08-30T08:11:17;101623.59;;;17.43;56.85
28935;BME280;16044;52.726;-2.108;2022-08-30T08:13:48;101625.31;;;17.65;56.19
28935;BME280;16044;52.726;-2.108;2022-08-30T08:16:25;101634.91;;;17.76;55.59
28935;BME280;16044;52.726;-2.108;2022-08-30T08:18:54;101638.41;;;17.85;54.96
28935;BME280;16044;52.726;-2.108;2022-08-30T08:21:22;101641.94;;;18.00;54.61
28935;BME280;16044;52.726;-2.108;2022-08-30T08:23:51;101640.75;;;18.09;53.89
28935;BME280;16044;52.726;-2.108;2022-08-30T08:26:18;101640.59;;;18.18;53.26
28935;BME280;16044;52.726;-2.108;2022-08-30T08:28:46;101642.41;;;18.32;53.11
28935;BME280;16044;52.726;-2.108;2022-08-30T08:31:18;101639.38;;;18.27;52.25
28935;BME280;16044;52.726;-2.108;2022-08-30T08:33:55;101632.06;;;18.34;52.45
28935;BME280;16044;52.726;-2.108;2022-08-30T08:36:22;101639.75;;;18.45;52.58
28935;BME280;16044;52.726;-2.108;2022-08-30T08:38:49;101635.47;;;18.43;51.65
28935;BME280;16044;52.726;-2.108;2022-08-30T08:44:36;101622.72;;;18.57;52.05
28935;BME280;16044;52.726;-2.108;2022-08-30T08:47:14;101640.22;;;18.56;51.57
28935;BME280;16044;52.726;-2.108;2022-08-30T08:49:45;101636.25;;;18.58;50.94
28935;BME280;16044;52.726;-2.108;2022-08-30T08:52:42;101637.22;;;18.50;50.20
28935;BME280;16044;52.726;-2.108;2022-08-30T08:55:32;101628.59;;;18.54;50.19
28935;BME280;16044;52.726;-2.108;2022-08-30T08:58:00;101628.97;;;18.50;49.96
28935;BME280;16044;52.726;-2.108;2022-08-30T09:00:27;101632.34;;;18.46;49.56
28935;BME280;16044;52.726;-2.108;2022-08-30T09:02:58;101632.72;;;18.43;49.73
28935;BME280;16044;52.726;-2.108;2022-08-30T09:05:30;101630.84;;;18.43;49.69
28935;BME280;16044;52.726;-2.108;2022-08-30T09:08:05;101635.09;;;18.46;49.97
28935;BME280;16044;52.726;-2.108;2022-08-30T09:10:37;101633.38;;;18.45;49.91
28935;BME280;16044;52.726;-2.108;2022-08-30T09:13:19;101631.50;;;18.45;50.37
28935;BME280;16044;52.726;-2.108;2022-08-30T09:15:48;101633.81;;;18.48;50.94
28935;BME280;16044;52.726;-2.108;2022-08-30T09:18:40;101632.34;;;18.46;50.79
28935;BME280;16044;52.726;-2.108;2022-08-30T09:21:12;101640.47;;;18.61;51.37
28935;BME280;16044;52.726;-2.108;2022-08-30T09:23:55;101641.94;;;18.63;50.17
28935;BME280;16044;52.726;-2.108;2022-08-30T09:26:34;101637.81;;;18.74;50.48
28935;BME280;16044;52.726;-2.108;2022-08-30T09:29:03;101637.59;;;18.76;50.58
28935;BME280;16044;52.726;-2.108;2022-08-30T09:34:42;101633.34;;;18.73;50.57
28935;BME280;16044;52.726;-2.108;2022-08-30T09:37:24;101628.53;;;18.75;51.10
28935;BME280;16044;52.726;-2.108;2022-08-30T09:39:56;101636.41;;;18.85;50.66
28935;BME280;16044;52.726;-2.108;2022-08-30T09:42:27;101640.03;;;18.92;51.08
28935;BME280;16044;52.726;-2.108;2022-08-30T09:44:56;101636.44;;;18.92;50.67
28935;BME280;16044;52.726;-2.108;2022-08-30T09:47:41;101631.38;;;18.95;49.41
28935;BME280;16044;52.726;-2.108;2022-08-30T09:50:13;101640.31;;;19.04;49.91
28935;BME280;16044;52.726;-2.108;2022-08-30T09:53:15;101636.53;;;19.12;49.58
28935;BME280;16044;52.726;-2.108;2022-08-30T09:56:09;101635.31;;;19.21;49.48
28935;BME280;16044;52.726;-2.108;2022-08-30T10:02:05;101636.59;;;19.25;48.83
28935;BME280;16044;52.726;-2.108;2022-08-30T10:14:02;101637.06;;;19.42;48.90
28935;BME280;16044;52.726;-2.108;2022-08-30T10:22:02;101634.56;;;19.60;48.16
28935;BME280;16044;52.726;-2.108;2022-08-30T10:24:41;101634.97;;;19.57;47.82
28935;BME280;16044;52.726;-2.108;2022-08-30T10:27:20;101639.22;;;19.66;48.58
28935;BME280;16044;52.726;-2.108;2022-08-30T10:30:00;101632.25;;;19.71;47.99
28935;BME280;16044;52.726;-2.108;2022-08-30T10:35:15;101635.84;;;19.71;47.32
28935;BME280;16044;52.726;-2.108;2022-08-30T10:37:57;101637.34;;;19.80;47.32
28935;BME280;16044;52.726;-2.108;2022-08-30T10:40:37;101628.25;;;19.86;47.01
28935;BME280;16044;52.726;-2.108;2022-08-30T10:43:29;101621.91;;;19.99;47.10
28935;BME280;16044;52.726;-2.108;2022-08-30T10:49:47;101631.63;;;20.35;47.00
28935;BME280;16044;52.726;-2.108;2022-08-30T10:52:33;101630.56;;;20.50;45.72
28935;BME280;16044;52.726;-2.108;2022-08-30T10:55:13;101632.88;;;20.59;45.42
28935;BME280;16044;52.726;-2.108;2022-08-30T10:57:42;101622.50;;;20.68;45.46
28935;BME280;16044;52.726;-2.108;2022-08-30T11:00:15;101623.31;;;20.82;45.26
28935;BME280;16044;52.726;-2.108;2022-08-30T11:03:08;101626.44;;;20.92;44.68
28935;BME280;16044;52.726;-2.108;2022-08-30T11:09:28;101622.53;;;21.13;44.36
28935;BME280;16044;52.726;-2.108;2022-08-30T11:14:59;101615.41;;;21.37;44.17
28935;BME280;16044;52.726;-2.108;2022-08-30T11:17:44;101616.59;;;21.55;44.27
28935;BME280;16044;52.726;-2.108;2022-08-30T11:20:29;101623.41;;;21.52;43.50
28935;BME280;16044;52.726;-2.108;2022-08-30T11:23:32;101613.47;;;21.51;42.95
28935;BME280;16044;52.726;-2.108;2022-08-30T11:26:08;101611.75;;;21.43;43.45
28935;BME280;16044;52.726;-2.108;2022-08-30T11:33:52;101602.16;;;21.14;44.36
28935;BME280;16044;52.726;-2.108;2022-08-30T11:39:04;101611.56;;;21.00;44.26
28935;BME280;16044;52.726;-2.108;2022-08-30T11:41:46;101613.53;;;20.93;44.55
28935;BME280;16044;52.726;-2.108;2022-08-30T11:48:05;101612.06;;;20.83;44.91
28935;BME280;16044;52.726;-2.108;2022-08-30T11:50:52;101611.19;;;20.90;45.10
28935;BME280;16044;52.726;-2.108;2022-08-30T11:53:53;101609.00;;;21.05;44.97
28935;BME280;16044;52.726;-2.108;2022-08-30T11:57:03;101607.19;;;21.31;45.06
28935;BME280;16044;52.726;-2.108;2022-08-30T12:16:05;101608.84;;;21.38;43.23
28935;BME280;16044;52.726;-2.108;2022-08-30T12:21:33;101597.13;;;21.50;43.04
28935;BME280;16044;52.726;-2.108;2022-08-30T12:26:50;101595.06;;;21.70;43.19
28935;BME280;16044;52.726;-2.108;2022-08-30T12:31:59;101582.44;;;21.81;41.81
28935;BME280;16044;52.726;-2.108;2022-08-30T12:34:34;101592.72;;;21.99;41.97
28935;BME280;16044;52.726;-2.108;2022-08-30T12:37:18;101588.75;;;22.13;41.55
28935;BME280;16044;52.726;-2.108;2022-08-30T12:40:21;101590.13;;;22.23;41.13
28935;BME280;16044;52.726;-2.108;2022-08-30T12:42:56;101585.13;;;22.38;41.26
28935;BME280;16044;52.726;-2.108;2022-08-30T12:45:28;101585.22;;;22.50;40.67
28935;BME280;16044;52.726;-2.108;2022-08-30T12:48:18;101588.75;;;22.57;40.28
28935;BME280;16044;52.726;-2.108;2022-08-30T12:50:53;101576.25;;;22.54;40.37
28935;BME280;16044;52.726;-2.108;2022-08-30T12:53:27;101577.78;;;22.50;40.35
28935;BME280;16044;52.726;-2.108;2022-08-30T12:56:11;101589.06;;;22.49;40.15
28935;BME280;16044;52.726;-2.108;2022-08-30T13:06:42;101577.97;;;22.30;40.69
28935;BME280;16044;52.726;-2.108;2022-08-30T13:12:06;101580.59;;;22.25;40.76
28935;BME280;16044;52.726;-2.108;2022-08-30T13:14:47;101588.25;;;22.23;40.94
28935;BME280;16044;52.726;-2.108;2022-08-30T13:19:59;101576.69;;;22.08;41.84
28935;BME280;16044;52.726;-2.108;2022-08-30T13:22:38;101576.94;;;22.06;41.60
28935;BME280;16044;52.726;-2.108;2022-08-30T13:25:09;101576.59;;;21.96;41.81
28935;BME280;16044;52.726;-2.108;2022-08-30T13:27:37;101571.06;;;21.96;41.90
28935;BME280;16044;52.726;-2.108;2022-08-30T13:30:11;101579.97;;;21.98;42.29
28935;BME280;16044;52.726;-2.108;2022-08-30T13:32:40;101582.19;;;21.89;42.67
28935;BME280;16044;52.726;-2.108;2022-08-30T13:35:08;101575.88;;;21.82;42.70
28935;BME280;16044;52.726;-2.108;2022-08-30T13:37:36;101572.50;;;21.80;42.67
28935;BME280;16044;52.726;-2.108;2022-08-30T13:40:16;101579.53;;;21.76;42.70
28935;BME280;16044;52.726;-2.108;2022-08-30T13:42:47;101577.63;;;21.76;43.01
28935;BME280;16044;52.726;-2.108;2022-08-30T13:45:16;101570.25;;;21.70;43.04
28935;BME280;16044;52.726;-2.108;2022-08-30T13:48:04;101573.53;;;21.79;42.93
28935;BME280;16044;52.726;-2.108;2022-08-30T13:50:32;101572.94;;;21.77;43.18
28935;BME280;16044;52.726;-2.108;2022-08-30T13:52:59;101575.03;;;21.82;43.19
28935;BME280;16044;52.726;-2.108;2022-08-30T13:55:27;101571.59;;;21.86;42.95
28935;BME280;16044;52.726;-2.108;2022-08-30T13:57:55;101570.41;;;22.00;43.00
28935;BME280;16044;52.726;-2.108;2022-08-30T14:00:24;101577.19;;;22.23;42.78
28935;BME280;16044;52.726;-2.108;2022-08-30T14:02:51;101577.53;;;22.33;42.71
28935;BME280;16044;52.726;-2.108;2022-08-30T14:05:26;101572.47;;;22.30;42.04
28935;BME280;16044;52.726;-2.108;2022-08-30T14:08:20;101570.59;;;22.24;42.42
28935;BME280;16044;52.726;-2.108;2022-08-30T14:11:09;101570.88;;;22.16;42.44
28935;BME280;16044;52.726;-2.108;2022-08-30T14:13:38;101572.03;;;22.08;42.61
28935;BME280;16044;52.726;-2.108;2022-08-30T14:16:29;101561.50;;;22.17;42.61
28935;BME280;16044;52.726;-2.108;2022-08-30T14:18:58;101557.09;;;22.16;42.94
28935;BME280;16044;52.726;-2.108;2022-08-30T14:21:26;101554.75;;;22.38;42.67
28935;BME280;16044;52.726;-2.108;2022-08-30T14:23:55;101550.16;;;22.50;42.38
28935;BME280;16044;52.726;-2.108;2022-08-30T14:26:29;101551.69;;;22.65;41.78
28935;BME280;16044;52.726;-2.108;2022-08-30T14:29:04;101545.00;;;22.72;41.60
28935;BME280;16044;52.726;-2.108;2022-08-30T14:31:35;101539.53;;;22.84;41.20
28935;BME280;16044;52.726;-2.108;2022-08-30T14:34:04;101541.28;;;22.97;41.51
28935;BME280;16044;52.726;-2.108;2022-08-30T14:36:33;101542.19;;;23.09;41.80
28935;BME280;16044;52.726;-2.108;2022-08-30T14:39:03;101544.97;;;23.21;41.20